Airfield :
LOGIN :

Register | Disclaimer

   EN    FR    IT 

 










Legend :    VFR   Marginal VFR   IFR   Intensive IFR   Very Intensive IFR
Visi :
Ceiling :
>= 8 km
>= 3000ft
5 to 8 km
1000 to 3000 ft
1500m to 5 km
500 to 1000 ft
800 to 1500m
200 to 500 ft
< 800m
< 200 ft
Symbols :   Thunderstorms  Fog  Heavy snow  Heavy precipitations  Wind > 20 kt
SIGMETs :     Misc.  Thunderstorms  Icing  Turbulence  Mountain Waves  Volcanic Ashes







- Airport Elevation : 83 ft
- IATA code : LHR
- Download approach charts


EGLL - London Heathrow

CURRENT METAR :
  • 211650Z AUTO 27018KT 9999 FEW049 16/06 Q1012

EXPIRED METARs :
  • 211620Z AUTO 26022KT 9999 SCT045 16/07 Q1012 NOSIG
  • 211550Z AUTO 26022KT 9999 NCD 16/08 Q1012 NOSIG
  • 211520Z AUTO 26024KT 9999 NCD 16/08 Q1011 NOSIG
  • 211450Z AUTO 26023KT 9999 SCT041 16/07 Q1011 NOSIG
  • 211420Z AUTO 26024KT 9999 FEW040 16/08 Q1011 NOSIG

TAF TAF EGLL
Valid from the 21 at 12:00 until the 22 at 18:00 UTC


211053Z 2112/2218 26018G28KT 9999 SCT030
TEMPO 2112/2116 26022G38KT
PROB30
TEMPO 2112/2116 6000 SHRA
BECMG 2117/2120 25008KT
TEMPO 2216/2218 6000 -RA BKN008
No reported NOTAMs for that airfield.
2 SIGMETs reported for the London FIR (EGTT) :
 
Severe turbulence
EGTT SIGMET 08 VALID 211600/211900 EGRR
EGTT LONDON FIR SEV TURB FCST WI N4926 W00456 - N4856 W00731 - N4850 W00800 - N5100 W00800 - N5128 W00708 - N4953 W00238 - N4926 W00456 FL200/370 MOV ENE 20KT NC=
Severe turbulence
EGTT SIGMET 07 VALID 211500/211900 EGRR
EGTT LONDON FIR SEV TURB FCST WI N5419 W00347 - N5310 E00002 - N5155 W00013 - N5222 W00344 - N5419 W00347 SFC/FL060 MOV ESE 35KT WKN=



MET'MAP, your aeronautical weather chart ! - Copyright ORBIFLY December 2007 - Disclaimer

ORBIFLY MET'MAP TEAM :

Programming & Development : Alexandra Zaïnal
Concept & Development : Baudouin d'Aumeries
Co-Development & Prog : Marc-Olivier Méhu
Technical & hardware support : Manuel Goepfert

Contact : metmap@orbifly.com




SOURCES & CREDITS :

   NOAA